Virginia Beach, VA (23465)

9:55 PM EST on December 28, 2014 (GMT -0500)
Kempsville | Change Station
CLOSE
Current Station
Personal Weather Station
Location: Virginia Beach, VA
Elevation: 20 ft
Nearby Weather Stations

Elev 20 ft 36.80 °N, 76.19 °W | Updated 2 seconds ago

Overcast
Overcast
59.6 °F
Feels Like 59.6 °F
N
1.0
Wind Variable Wind from West
Gusts 5.0 mph

Today
High -- | Low -- °F
--% Chance of Precip.
Yesterday
High -- | Low -- °F
Precip. -- in
7:16 AM 4:56 PM
First Quarter, 54% visible
Pressure 30.04 in
Visibility 10.0 miles
Clouds Mostly Cloudy 800 ft
Overcast 3200 ft
Dew Point 58 °F
Humidity 95%
Rainfall 0.00 in
Snow Depth Not available.
UV 0 out of 12
Pollen .10 out of 12
Air Quality Not available.
Flu Activity Not available.
METAR KORF 290251Z AUTO 24007KT 10SM BKN008 OVC032 16/13 A3004 RMK AO2 SLP172 T01560133 53007 TSNO

More Conditions Fewer Conditions

Pressure 30.04 in
Visibility 10.0 miles
Clouds Mostly Cloudy 800 ft
Overcast 3200 ft
Dew Point 58 °F
Humidity 95%
Rainfall 0.00 in
Snow Depth Not available.
UV 0 out of 12
Pollen .10 out of 12
Air Quality Not available.
Flu Activity Not available.
METAR KORF 290251Z AUTO 24007KT 10SM BKN008 OVC032 16/13 A3004 RMK AO2 SLP172 T01560133 53007 TSNO

More Conditions Fewer Conditions

10-Day Weather Forecast

Almanac

Astronomy

Dec. 28, 2014 Rise Set
Actual Time
Civil Twilight
Nautical Twilight
Astronomical Twilight
Moon
Length of Visible Light
Length of Day
Tomorrow will be .
, % of the Moon is Illuminated

Today's Extremes

State Highs State Lows

Community

WunderPhotos

Upload Photos

1,781,504 photos uploaded!

WunderBlogs® & News

Nearby

Air Quality

  Air Quality AQ Index Pollutant
Not available.

Snow Depth

Station Depth Elevation

Earthquake Activity

City Distance Mag. Time & Date
Minimum magnitude displayed is 2.5.

Coastal Water Temperatures

Place Temperature

Nearby Weather Stations